Terminal Aerodrome Forecast
Issued by NWS Wakefield, VA

Home | Current Version | Previous Version | Text Only | Print | Product List | Glossary On
Versions: 1 2 3 4 5 6 7 8 9 10 11 12 13 14 15 16 17 18 19 20 21 22 23 24 25 26 27 28 29 30 31 32
100
FTUS41 KAKQ 210538
TAFORF
TAF
KORF 210538Z 2106/2206 20010KT P6SM BKN015
      TEMPO 2106/2108 SCT015
     FM210800 20007KT 4SM BR BKN010
     FM211200 20006KT 2SM BR BKN015
     FM211400 21009KT 3SM BR SCT020
     FM211600 22010KT P6SM SCT035
     FM212200 21009KT P6SM SKC=

USA.gov is the U.S. government's official web portal to all federal, state and local government web resources and services.